Terminal Aerodrome Forecast
Issued by NWS Wakefield, VA

Home | Current Version | Previous Version | Text Only | Print | Product List | Glossary On
Versions: 1 2 3 4 5 6 7 8 9 10 11 12 13 14 15 16 17 18 19 20 21 22 23 24 25
000
FTUS41 KAKQ 291133
TAFRIC
TAF
KRIC 291133Z 2912/3012 02009KT P6SM OVC005
      TEMPO 2912/2914 2SM BR
     FM291800 34005KT P6SM BKN015
     FM300200 05003KT P6SM OVC008=

USA.gov is the U.S. government's official web portal to all federal, state and local government web resources and services.